sensor_id;sensor_type;location;lat;lon;timestamp;temperature;humidity
3770;DHT22;1900;48.890;9.190;2023-04-01T00:00:23;14.40;54.30
3770;DHT22;1900;48.890;9.190;2023-04-01T00:02:49;14.40;54.20
3770;DHT22;1900;48.890;9.190;2023-04-01T00:05:15;14.40;54.30
3770;DHT22;1900;48.890;9.190;2023-04-01T00:07:42;14.40;54.30
3770;DHT22;1900;48.890;9.190;2023-04-01T00:10:10;14.40;54.30
3770;DHT22;1900;48.890;9.190;2023-04-01T00:12:37;14.30;54.20
3770;DHT22;1900;48.890;9.190;2023-04-01T00:15:05;14.30;54.30
3770;DHT22;1900;48.890;9.190;2023-04-01T00:17:31;14.30;54.20
3770;DHT22;1900;48.890;9.190;2023-04-01T00:19:56;14.30;54.20
3770;DHT22;1900;48.890;9.190;2023-04-01T00:22:23;14.30;54.30
3770;DHT22;1900;48.890;9.190;2023-04-01T00:24:49;14.30;54.30
3770;DHT22;1900;48.890;9.190;2023-04-01T00:27:15;14.30;54.40
3770;DHT22;1900;48.890;9.190;2023-04-01T00:29:45;14.30;54.40
3770;DHT22;1900;48.890;9.190;2023-04-01T00:32:12;14.30;54.40
3770;DHT22;1900;48.890;9.190;2023-04-01T00:34:38;14.30;54.30
3770;DHT22;1900;48.890;9.190;2023-04-01T00:37:06;14.30;54.40
3770;DHT22;1900;48.890;9.190;2023-04-01T00:39:32;14.30;54.40
3770;DHT22;1900;48.890;9.190;2023-04-01T00:41:59;14.30;54.40
3770;DHT22;1900;48.890;9.190;2023-04-01T00:44:36;14.30;54.50
3770;DHT22;1900;48.890;9.190;2023-04-01T00:47:02;14.40;54.60
3770;DHT22;1900;48.890;9.190;2023-04-01T00:49:34;14.30;54.50
3770;DHT22;1900;48.890;9.190;2023-04-01T00:52:04;14.30;54.50
3770;DHT22;1900;48.890;9.190;2023-04-01T00:54:31;14.30;54.60
3770;DHT22;1900;48.890;9.190;2023-04-01T00:57:00;14.30;54.50
3770;DHT22;1900;48.890;9.190;2023-04-01T00:59:30;14.40;54.60
3770;DHT22;1900;48.890;9.190;2023-04-01T01:01:57;14.40;54.60
3770;DHT22;1900;48.890;9.190;2023-04-01T01:04:26;14.30;54.50
3770;DHT22;1900;48.890;9.190;2023-04-01T01:10:12;14.40;54.70
3770;DHT22;1900;48.890;9.190;2023-04-01T01:12:54;14.40;54.70
3770;DHT22;1900;48.890;9.190;2023-04-01T01:24:17;14.40;54.70
3770;DHT22;1900;48.890;9.190;2023-04-01T01:38:05;14.40;54.80
3770;DHT22;1900;48.890;9.190;2023-04-01T01:40:33;14.40;54.80
3770;DHT22;1900;48.890;9.190;2023-04-01T01:43:06;14.40;54.80
3770;DHT22;1900;48.890;9.190;2023-04-01T01:45:37;14.40;54.90
3770;DHT22;1900;48.890;9.190;2023-04-01T01:48:07;14.40;54.80
3770;DHT22;1900;48.890;9.190;2023-04-01T01:50:35;14.40;54.80
3770;DHT22;1900;48.890;9.190;2023-04-01T01:53:06;14.40;54.80
3770;DHT22;1900;48.890;9.190;2023-04-01T01:55:34;14.50;54.90
3770;DHT22;1900;48.890;9.190;2023-04-01T01:58:09;14.50;54.80
3770;DHT22;1900;48.890;9.190;2023-04-01T02:00:39;14.50;54.80
3770;DHT22;1900;48.890;9.190;2023-04-01T02:03:07;14.50;54.80
3770;DHT22;1900;48.890;9.190;2023-04-01T02:05:33;14.50;54.90
3770;DHT22;1900;48.890;9.190;2023-04-01T02:08:16;14.50;55.00
3770;DHT22;1900;48.890;9.190;2023-04-01T02:10:58;14.50;55.00
3770;DHT22;1900;48.890;9.190;2023-04-01T02:13:37;14.50;55.00
3770;DHT22;1900;48.890;9.190;2023-04-01T02:16:11;14.60;55.20
3770;DHT22;1900;48.890;9.190;2023-04-01T02:18:39;14.60;55.10
3770;DHT22;1900;48.890;9.190;2023-04-01T02:21:07;14.60;55.10
3770;DHT22;1900;48.890;9.190;2023-04-01T02:23:35;14.60;55.10
3770;DHT22;1900;48.890;9.190;2023-04-01T02:26:02;14.60;55.20
3770;DHT22;1900;48.890;9.190;2023-04-01T02:28:29;14.60;55.20
3770;DHT22;1900;48.890;9.190;2023-04-01T02:30:57;14.60;55.10
3770;DHT22;1900;48.890;9.190;2023-04-01T02:33:27;14.60;55.00
3770;DHT22;1900;48.890;9.190;2023-04-01T02:35:53;14.60;55.00
3770;DHT22;1900;48.890;9.190;2023-04-01T02:38:19;14.60;54.90
3770;DHT22;1900;48.890;9.190;2023-04-01T02:40:49;14.60;54.90
3770;DHT22;1900;48.890;9.190;2023-04-01T02:43:15;14.60;55.00
3770;DHT22;1900;48.890;9.190;2023-04-01T02:45:42;14.60;54.90
3770;DHT22;1900;48.890;9.190;2023-04-01T02:48:08;14.60;54.80
3770;DHT22;1900;48.890;9.190;2023-04-01T02:50:34;14.50;54.80
3770;DHT22;1900;48.890;9.190;2023-04-01T02:53:00;14.60;55.00
3770;DHT22;1900;48.890;9.190;2023-04-01T02:55:26;14.50;54.80
3770;DHT22;1900;48.890;9.190;2023-04-01T02:57:52;14.50;54.80
3770;DHT22;1900;48.890;9.190;2023-04-01T03:00:18;14.50;54.80
3770;DHT22;1900;48.890;9.190;2023-04-01T03:02:43;14.50;54.90
3770;DHT22;1900;48.890;9.190;2023-04-01T03:05:10;14.50;54.90
3770;DHT22;1900;48.890;9.190;2023-04-01T03:07:36;14.50;54.90
3770;DHT22;1900;48.890;9.190;2023-04-01T03:10:02;14.60;55.00
3770;DHT22;1900;48.890;9.190;2023-04-01T03:12:27;14.50;54.90
3770;DHT22;1900;48.890;9.190;2023-04-01T03:14:53;14.50;54.80
3770;DHT22;1900;48.890;9.190;2023-04-01T03:17:19;14.50;54.70
3770;DHT22;1900;48.890;9.190;2023-04-01T03:19:45;14.40;54.60
3770;DHT22;1900;48.890;9.190;2023-04-01T03:22:11;14.40;54.70
3770;DHT22;1900;48.890;9.190;2023-04-01T03:24:37;14.40;54.80
3770;DHT22;1900;48.890;9.190;2023-04-01T03:27:02;14.40;54.70
3770;DHT22;1900;48.890;9.190;2023-04-01T03:29:29;14.40;54.70
3770;DHT22;1900;48.890;9.190;2023-04-01T03:31:54;14.30;54.60
3770;DHT22;1900;48.890;9.190;2023-04-01T03:34:24;14.30;54.60
3770;DHT22;1900;48.890;9.190;2023-04-01T03:36:51;14.30;54.70
3770;DHT22;1900;48.890;9.190;2023-04-01T03:39:17;14.30;54.80
3770;DHT22;1900;48.890;9.190;2023-04-01T03:41:45;14.30;54.80
3770;DHT22;1900;48.890;9.190;2023-04-01T03:44:11;14.30;54.70
3770;DHT22;1900;48.890;9.190;2023-04-01T03:46:37;14.30;54.70
3770;DHT22;1900;48.890;9.190;2023-04-01T03:49:07;14.30;54.70
3770;DHT22;1900;48.890;9.190;2023-04-01T03:51:38;14.20;54.60
3770;DHT22;1900;48.890;9.190;2023-04-01T03:54:04;14.20;54.60
3770;DHT22;1900;48.890;9.190;2023-04-01T03:56:31;14.20;54.60
3770;DHT22;1900;48.890;9.190;2023-04-01T03:58:56;14.20;54.60
3770;DHT22;1900;48.890;9.190;2023-04-01T04:01:22;14.20;54.50
3770;DHT22;1900;48.890;9.190;2023-04-01T04:03:51;14.20;54.50
3770;DHT22;1900;48.890;9.190;2023-04-01T04:06:18;14.10;54.40
3770;DHT22;1900;48.890;9.190;2023-04-01T04:08:44;14.10;54.40
3770;DHT22;1900;48.890;9.190;2023-04-01T04:11:10;14.10;54.50
3770;DHT22;1900;48.890;9.190;2023-04-01T04:13:39;14.00;54.40
3770;DHT22;1900;48.890;9.190;2023-04-01T04:16:05;14.10;54.50
3770;DHT22;1900;48.890;9.190;2023-04-01T04:18:32;14.00;54.40
3770;DHT22;1900;48.890;9.190;2023-04-01T04:20:58;14.00;54.40
3770;DHT22;1900;48.890;9.190;2023-04-01T04:23:24;14.00;54.40
3770;DHT22;1900;48.890;9.190;2023-04-01T04:26:11;13.90;54.40
3770;DHT22;1900;48.890;9.190;2023-04-01T04:28:38;13.90;54.40
3770;DHT22;1900;48.890;9.190;2023-04-01T04:31:05;13.90;54.40
3770;DHT22;1900;48.890;9.190;2023-04-01T04:33:34;13.90;54.40
3770;DHT22;1900;48.890;9.190;2023-04-01T04:36:03;13.90;54.50
3770;DHT22;1900;48.890;9.190;2023-04-01T04:38:29;13.90;54.50
3770;DHT22;1900;48.890;9.190;2023-04-01T04:40:54;13.80;54.40
3770;DHT22;1900;48.890;9.190;2023-04-01T04:43:21;13.90;54.60
3770;DHT22;1900;48.890;9.190;2023-04-01T04:45:47;13.90;54.60
3770;DHT22;1900;48.890;9.190;2023-04-01T04:48:15;13.90;54.60
3770;DHT22;1900;48.890;9.190;2023-04-01T04:50:49;13.90;54.50
3770;DHT22;1900;48.890;9.190;2023-04-01T04:53:17;13.90;54.60
3770;DHT22;1900;48.890;9.190;2023-04-01T04:55:48;13.90;54.60
3770;DHT22;1900;48.890;9.190;2023-04-01T04:58:41;13.90;54.60
3770;DHT22;1900;48.890;9.190;2023-04-01T05:01:11;13.90;54.60
3770;DHT22;1900;48.890;9.190;2023-04-01T05:03:38;13.90;54.60
3770;DHT22;1900;48.890;9.190;2023-04-01T05:06:06;13.80;54.50
3770;DHT22;1900;48.890;9.190;2023-04-01T05:08:32;13.90;54.60
3770;DHT22;1900;48.890;9.190;2023-04-01T05:10:59;13.90;54.60
3770;DHT22;1900;48.890;9.190;2023-04-01T05:13:25;13.80;54.50
3770;DHT22;1900;48.890;9.190;2023-04-01T05:15:52;13.80;54.50
3770;DHT22;1900;48.890;9.190;2023-04-01T05:18:17;13.80;54.50
3770;DHT22;1900;48.890;9.190;2023-04-01T05:20:48;13.80;54.50
3770;DHT22;1900;48.890;9.190;2023-04-01T05:23:14;13.80;54.60
3770;DHT22;1900;48.890;9.190;2023-04-01T05:25:40;13.80;54.50
3770;DHT22;1900;48.890;9.190;2023-04-01T05:28:06;13.80;54.50
3770;DHT22;1900;48.890;9.190;2023-04-01T05:30:32;13.80;54.50
3770;DHT22;1900;48.890;9.190;2023-04-01T05:33:16;13.80;54.60
3770;DHT22;1900;48.890;9.190;2023-04-01T05:35:42;13.80;54.60
3770;DHT22;1900;48.890;9.190;2023-04-01T05:38:08;13.80;54.60
3770;DHT22;1900;48.890;9.190;2023-04-01T05:40:33;13.80;54.60
3770;DHT22;1900;48.890;9.190;2023-04-01T05:42:59;13.80;54.60
3770;DHT22;1900;48.890;9.190;2023-04-01T05:45:26;13.80;54.60
3770;DHT22;1900;48.890;9.190;2023-04-01T05:48:10;13.80;54.60
3770;DHT22;1900;48.890;9.190;2023-04-01T05:50:40;13.80;54.70
3770;DHT22;1900;48.890;9.190;2023-04-01T05:53:06;13.80;54.80
3770;DHT22;1900;48.890;9.190;2023-04-01T05:55:35;13.80;54.70
3770;DHT22;1900;48.890;9.190;2023-04-01T05:58:01;13.80;54.80
3770;DHT22;1900;48.890;9.190;2023-04-01T06:00:27;13.80;54.80
3770;DHT22;1900;48.890;9.190;2023-04-01T06:02:53;13.80;54.80
3770;DHT22;1900;48.890;9.190;2023-04-01T06:05:21;13.80;54.80
3770;DHT22;1900;48.890;9.190;2023-04-01T06:07:48;13.80;54.80
3770;DHT22;1900;48.890;9.190;2023-04-01T06:10:18;13.80;54.80
3770;DHT22;1900;48.890;9.190;2023-04-01T06:15:50;13.80;55.00
3770;DHT22;1900;48.890;9.190;2023-04-01T06:21:14;13.90;55.20
3770;DHT22;1900;48.890;9.190;2023-04-01T06:24:21;13.90;55.20
3770;DHT22;1900;48.890;9.190;2023-04-01T06:38:14;14.10;55.30
3770;DHT22;1900;48.890;9.190;2023-04-01T06:46:47;14.20;55.50
3770;DHT22;1900;48.890;9.190;2023-04-01T06:49:48;14.20;55.60
3770;DHT22;1900;48.890;9.190;2023-04-01T06:55:49;14.30;56.30
3770;DHT22;1900;48.890;9.190;2023-04-01T06:58:24;14.30;55.70
3770;DHT22;1900;48.890;9.190;2023-04-01T07:01:03;14.40;55.80
3770;DHT22;1900;48.890;9.190;2023-04-01T07:03:41;14.40;55.80
3770;DHT22;1900;48.890;9.190;2023-04-01T07:06:19;14.40;55.70
3770;DHT22;1900;48.890;9.190;2023-04-01T07:08:53;14.50;55.80
3770;DHT22;1900;48.890;9.190;2023-04-01T07:11:32;14.50;55.70
3770;DHT22;1900;48.890;9.190;2023-04-01T07:14:36;14.60;55.80
3770;DHT22;1900;48.890;9.190;2023-04-01T07:17:11;14.60;55.80
3770;DHT22;1900;48.890;9.190;2023-04-01T07:19:39;14.60;55.80
3770;DHT22;1900;48.890;9.190;2023-04-01T07:22:19;14.60;55.70
3770;DHT22;1900;48.890;9.190;2023-04-01T07:25:22;14.60;55.70
3770;DHT22;1900;48.890;9.190;2023-04-01T07:28:06;14.60;55.80
3770;DHT22;1900;48.890;9.190;2023-04-01T07:36:22;14.70;55.90
3770;DHT22;1900;48.890;9.190;2023-04-01T07:48:08;14.80;56.00
3770;DHT22;1900;48.890;9.190;2023-04-01T07:59:12;14.90;56.00
3770;DHT22;1900;48.890;9.190;2023-04-01T08:04:57;14.90;56.10
3770;DHT22;1900;48.890;9.190;2023-04-01T08:07:47;14.90;56.10
3770;DHT22;1900;48.890;9.190;2023-04-01T08:10:49;14.90;56.10
3770;DHT22;1900;48.890;9.190;2023-04-01T08:17:34;14.90;56.00
3770;DHT22;1900;48.890;9.190;2023-04-01T08:22:47;15.00;56.10
3770;DHT22;1900;48.890;9.190;2023-04-01T08:25:26;15.00;56.20
3770;DHT22;1900;48.890;9.190;2023-04-01T08:28:04;15.00;56.30
3770;DHT22;1900;48.890;9.190;2023-04-01T08:30:45;15.10;56.50
3770;DHT22;1900;48.890;9.190;2023-04-01T08:38:33;15.20;56.50
3770;DHT22;1900;48.890;9.190;2023-04-01T08:44:27;15.20;56.40
3770;DHT22;1900;48.890;9.190;2023-04-01T09:06:03;15.20;56.50
3770;DHT22;1900;48.890;9.190;2023-04-01T09:29:18;15.30;56.70
3770;DHT22;1900;48.890;9.190;2023-04-01T09:46:15;15.30;56.70
3770;DHT22;1900;48.890;9.190;2023-04-01T09:49:19;15.30;56.80
3770;DHT22;1900;48.890;9.190;2023-04-01T09:51:58;15.30;56.80
3770;DHT22;1900;48.890;9.190;2023-04-01T09:54:50;15.40;56.80
3770;DHT22;1900;48.890;9.190;2023-04-01T09:57:37;15.30;56.50
3770;DHT22;1900;48.890;9.190;2023-04-01T10:14:45;15.30;56.50
3770;DHT22;1900;48.890;9.190;2023-04-01T10:20:46;15.30;56.50
3770;DHT22;1900;48.890;9.190;2023-04-01T10:26:16;15.30;56.50
3770;DHT22;1900;48.890;9.190;2023-04-01T10:28:51;15.30;56.60
3770;DHT22;1900;48.890;9.190;2023-04-01T10:46:42;15.30;56.60
3770;DHT22;1900;48.890;9.190;2023-04-01T10:49:42;15.30;56.60
3770;DHT22;1900;48.890;9.190;2023-04-01T11:05:26;15.40;56.80
3770;DHT22;1900;48.890;9.190;2023-04-01T11:33:55;15.60;57.00
3770;DHT22;1900;48.890;9.190;2023-04-01T11:48:07;15.70;57.10
3770;DHT22;1900;48.890;9.190;2023-04-01T11:53:21;15.80;57.20
3770;DHT22;1900;48.890;9.190;2023-04-01T12:01:47;15.90;57.20
3770;DHT22;1900;48.890;9.190;2023-04-01T12:10:20;16.00;57.10
3770;DHT22;1900;48.890;9.190;2023-04-01T12:36:48;16.10;57.20
3770;DHT22;1900;48.890;9.190;2023-04-01T12:44:26;16.20;57.40
3770;DHT22;1900;48.890;9.190;2023-04-01T12:55:38;16.30;57.20
3770;DHT22;1900;48.890;9.190;2023-04-01T13:06:44;16.20;57.10
3770;DHT22;1900;48.890;9.190;2023-04-01T13:17:52;16.20;57.00
3770;DHT22;1900;48.890;9.190;2023-04-01T13:28:38;16.20;56.90
3770;DHT22;1900;48.890;9.190;2023-04-01T13:42:49;16.10;56.90
3770;DHT22;1900;48.890;9.190;2023-04-01T13:45:21;16.10;56.80
3770;DHT22;1900;48.890;9.190;2023-04-01T13:50:46;16.00;56.70
3770;DHT22;1900;48.890;9.190;2023-04-01T13:55:56;16.00;56.80
3770;DHT22;1900;48.890;9.190;2023-04-01T13:58:34;16.00;56.80
3770;DHT22;1900;48.890;9.190;2023-04-01T14:01:12;15.90;56.80
3770;DHT22;1900;48.890;9.190;2023-04-01T14:15:19;15.80;56.60
3770;DHT22;1900;48.890;9.190;2023-04-01T14:21:08;15.80;56.70
3770;DHT22;1900;48.890;9.190;2023-04-01T14:35:31;15.80;56.80
3770;DHT22;1900;48.890;9.190;2023-04-01T14:46:26;15.90;57.00
3770;DHT22;1900;48.890;9.190;2023-04-01T14:49:04;15.90;56.90
3770;DHT22;1900;48.890;9.190;2023-04-01T14:51:40;15.80;56.80
3770;DHT22;1900;48.890;9.190;2023-04-01T14:56:43;15.90;57.00
3770;DHT22;1900;48.890;9.190;2023-04-01T15:01:59;15.90;57.10
3770;DHT22;1900;48.890;9.190;2023-04-01T15:07:29;15.90;57.20
3770;DHT22;1900;48.890;9.190;2023-04-01T15:16:05;16.00;57.40
3770;DHT22;1900;48.890;9.190;2023-04-01T15:24:24;16.00;57.50
3770;DHT22;1900;48.890;9.190;2023-04-01T15:43:49;16.10;57.30
3770;DHT22;1900;48.890;9.190;2023-04-01T15:46:48;16.10;57.20
3770;DHT22;1900;48.890;9.190;2023-04-01T15:49:19;16.10;57.10
3770;DHT22;1900;48.890;9.190;2023-04-01T16:17:12;16.00;56.80
3770;DHT22;1900;48.890;9.190;2023-04-01T16:28:03;15.90;56.90
3770;DHT22;1900;48.890;9.190;2023-04-01T16:44:59;15.90;56.80
3770;DHT22;1900;48.890;9.190;2023-04-01T16:47:30;15.90;56.80
3770;DHT22;1900;48.890;9.190;2023-04-01T16:50:18;15.80;56.60
3770;DHT22;1900;48.890;9.190;2023-04-01T16:52:59;15.80;56.60
3770;DHT22;1900;48.890;9.190;2023-04-01T16:58:27;15.80;56.80
3770;DHT22;1900;48.890;9.190;2023-04-01T17:01:23;15.80;56.80
3770;DHT22;1900;48.890;9.190;2023-04-01T17:03:57;15.80;56.80
3770;DHT22;1900;48.890;9.190;2023-04-01T17:06:53;15.80;56.90
3770;DHT22;1900;48.890;9.190;2023-04-01T17:15:10;15.80;56.90
3770;DHT22;1900;48.890;9.190;2023-04-01T17:20:43;15.80;56.90
3770;DHT22;1900;48.890;9.190;2023-04-01T17:26:06;15.90;57.00
3770;DHT22;1900;48.890;9.190;2023-04-01T17:28:48;15.90;57.10
3770;DHT22;1900;48.890;9.190;2023-04-01T17:31:48;15.90;57.00
3770;DHT22;1900;48.890;9.190;2023-04-01T17:47:48;16.00;57.20
3770;DHT22;1900;48.890;9.190;2023-04-01T17:50:23;16.00;57.20
3770;DHT22;1900;48.890;9.190;2023-04-01T18:00:58;16.10;57.20
3770;DHT22;1900;48.890;9.190;2023-04-01T18:14:36;16.00;56.90
3770;DHT22;1900;48.890;9.190;2023-04-01T18:17:17;16.00;56.90
3770;DHT22;1900;48.890;9.190;2023-04-01T18:25:49;16.00;57.10
3770;DHT22;1900;48.890;9.190;2023-04-01T18:28:38;16.00;57.00
3770;DHT22;1900;48.890;9.190;2023-04-01T18:31:17;16.00;57.00
3770;DHT22;1900;48.890;9.190;2023-04-01T18:36:51;16.00;57.00
3770;DHT22;1900;48.890;9.190;2023-04-01T18:39:38;16.00;57.00
3770;DHT22;1900;48.890;9.190;2023-04-01T18:47:27;15.90;56.80
3770;DHT22;1900;48.890;9.190;2023-04-01T18:50:24;15.90;56.80
3770;DHT22;1900;48.890;9.190;2023-04-01T18:55:52;15.80;56.70
3770;DHT22;1900;48.890;9.190;2023-04-01T18:58:46;15.80;56.70
3770;DHT22;1900;48.890;9.190;2023-04-01T19:01:28;15.80;56.70
3770;DHT22;1900;48.890;9.190;2023-04-01T19:04:15;15.80;56.70
3770;DHT22;1900;48.890;9.190;2023-04-01T19:09:32;15.70;56.60
3770;DHT22;1900;48.890;9.190;2023-04-01T19:15:22;15.70;56.70
3770;DHT22;1900;48.890;9.190;2023-04-01T19:20:59;15.70;56.60
3770;DHT22;1900;48.890;9.190;2023-04-01T19:26:05;15.60;56.50
3770;DHT22;1900;48.890;9.190;2023-04-01T19:31:29;15.50;56.30
3770;DHT22;1900;48.890;9.190;2023-04-01T19:36:49;15.50;56.30
3770;DHT22;1900;48.890;9.190;2023-04-01T19:40:17;15.50;56.30
3770;DHT22;1900;48.890;9.190;2023-04-01T19:52:56;15.30;56.10
3770;DHT22;1900;48.890;9.190;2023-04-01T19:55:42;15.20;56.00
3770;DHT22;1900;48.890;9.190;2023-04-01T20:00:50;15.20;56.00
3770;DHT22;1900;48.890;9.190;2023-04-01T20:03:41;15.10;55.90
3770;DHT22;1900;48.890;9.190;2023-04-01T20:06:21;15.10;55.90
3770;DHT22;1900;48.890;9.190;2023-04-01T20:17:06;15.00;55.90
3770;DHT22;1900;48.890;9.190;2023-04-01T20:22:02;14.90;55.90
3770;DHT22;1900;48.890;9.190;2023-04-01T20:24:45;14.90;55.90
3770;DHT22;1900;48.890;9.190;2023-04-01T20:35:12;14.90;56.10
3770;DHT22;1900;48.890;9.190;2023-04-01T20:38:30;14.90;56.10
3770;DHT22;1900;48.890;9.190;2023-04-01T20:41:11;14.90;56.20
3770;DHT22;1900;48.890;9.190;2023-04-01T20:43:52;14.90;56.20
3770;DHT22;1900;48.890;9.190;2023-04-01T20:52:25;14.90;56.30
3770;DHT22;1900;48.890;9.190;2023-04-01T20:57:41;14.90;56.30
3770;DHT22;1900;48.890;9.190;2023-04-01T21:00:34;14.90;56.40
3770;DHT22;1900;48.890;9.190;2023-04-01T21:03:09;14.90;56.40
3770;DHT22;1900;48.890;9.190;2023-04-01T21:28:34;15.00;56.50
3770;DHT22;1900;48.890;9.190;2023-04-01T21:59:45;15.00;56.50
3770;DHT22;1900;48.890;9.190;2023-04-01T22:05:32;15.00;56.60
3770;DHT22;1900;48.890;9.190;2023-04-01T22:08:20;15.00;56.50
3770;DHT22;1900;48.890;9.190;2023-04-01T22:10:51;14.90;56.50
3770;DHT22;1900;48.890;9.190;2023-04-01T22:13:32;14.90;56.50
3770;DHT22;1900;48.890;9.190;2023-04-01T22:19:17;15.00;56.50
3770;DHT22;1900;48.890;9.190;2023-04-01T22:24:34;14.90;56.50
3770;DHT22;1900;48.890;9.190;2023-04-01T22:35:04;14.90;56.60
3770;DHT22;1900;48.890;9.190;2023-04-01T22:37:49;15.00;57.20
3770;DHT22;1900;48.890;9.190;2023-04-01T22:43:08;15.00;56.60
3770;DHT22;1900;48.890;9.190;2023-04-01T22:45:49;15.00;56.60
3770;DHT22;1900;48.890;9.190;2023-04-01T22:48:35;15.00;56.60
3770;DHT22;1900;48.890;9.190;2023-04-01T22:56:21;15.00;56.70
3770;DHT22;1900;48.890;9.190;2023-04-01T22:59:13;15.00;56.60
3770;DHT22;1900;48.890;9.190;2023-04-01T23:01:45;15.00;56.60
3770;DHT22;1900;48.890;9.190;2023-04-01T23:04:16;15.00;56.60
3770;DHT22;1900;48.890;9.190;2023-04-01T23:07:04;15.00;56.60
3770;DHT22;1900;48.890;9.190;2023-04-01T23:09:37;15.00;56.70
3770;DHT22;1900;48.890;9.190;2023-04-01T23:12:09;15.00;56.60
3770;DHT22;1900;48.890;9.190;2023-04-01T23:14:38;15.00;56.60
3770;DHT22;1900;48.890;9.190;2023-04-01T23:20:10;15.00;56.60
3770;DHT22;1900;48.890;9.190;2023-04-01T23:28:26;15.00;56.70
3770;DHT22;1900;48.890;9.190;2023-04-01T23:30:57;15.00;56.70
3770;DHT22;1900;48.890;9.190;2023-04-01T23:33:30;15.00;56.60
3770;DHT22;1900;48.890;9.190;2023-04-01T23:36:11;15.00;56.70
3770;DHT22;1900;48.890;9.190;2023-04-01T23:38:39;15.00;56.60
3770;DHT22;1900;48.890;9.190;2023-04-01T23:41:08;14.90;56.60
3770;DHT22;1900;48.890;9.190;2023-04-01T23:43:43;14.90;56.50
3770;DHT22;1900;48.890;9.190;2023-04-01T23:46:12;14.90;56.50
3770;DHT22;1900;48.890;9.190;2023-04-01T23:48:40;14.90;56.50
3770;DHT22;1900;48.890;9.190;2023-04-01T23:51:27;14.90;56.50
3770;DHT22;1900;48.890;9.190;2023-04-01T23:54:19;14.90;56.60
3770;DHT22;1900;48.890;9.190;2023-04-01T23:56:51;14.90;56.50
3770;DHT22;1900;48.890;9.190;2023-04-01T23:59:23;14.90;56.50
